createdAt,value
2019-02-08T00:00:21.729Z,69.30
2019-02-08T00:02:26.218Z,69.20
2019-02-08T00:04:30.670Z,69.10
2019-02-08T00:06:35.090Z,69.10
2019-02-08T00:08:39.473Z,69.00
2019-02-08T00:10:43.897Z,69.00
2019-02-08T00:12:48.367Z,68.90
2019-02-08T00:14:52.771Z,68.70
2019-02-08T00:16:57.161Z,69.00
2019-02-08T00:19:01.555Z,68.80
2019-02-08T00:21:06.006Z,68.90
2019-02-08T00:23:10.497Z,68.80
2019-02-08T00:25:15.466Z,68.80
2019-02-08T00:27:19.889Z,68.90
2019-02-08T00:29:24.355Z,69.10
2019-02-08T00:31:28.721Z,68.90
2019-02-08T00:33:33.185Z,68.80
2019-02-08T00:35:37.637Z,68.80
2019-02-08T00:37:42.061Z,69.00
2019-02-08T00:39:46.440Z,68.90
2019-02-08T00:41:50.950Z,68.80
2019-02-08T00:43:55.286Z,68.80
2019-02-08T00:45:59.657Z,68.70
2019-02-08T00:48:04.119Z,68.70
2019-02-08T00:50:11.208Z,68.90
2019-02-08T00:52:15.554Z,69.10
2019-02-08T00:54:20.058Z,69.20
2019-02-08T00:56:24.442Z,69.40
2019-02-08T00:58:28.842Z,69.20
2019-02-08T01:00:33.361Z,69.20
2019-02-08T01:02:37.778Z,69.20
2019-02-08T01:04:42.172Z,69.00
2019-02-08T01:06:46.559Z,69.20
2019-02-08T01:08:50.975Z,68.70
2019-02-08T01:10:55.342Z,68.80
2019-02-08T01:12:59.867Z,68.80
2019-02-08T01:15:05.012Z,68.70
2019-02-08T01:17:09.414Z,68.60
2019-02-08T01:19:13.787Z,68.70
2019-02-08T01:21:18.114Z,69.30
2019-02-08T01:23:22.461Z,69.40
2019-02-08T01:25:26.982Z,69.70
2019-02-08T01:27:31.343Z,69.70
2019-02-08T01:29:35.667Z,69.70
2019-02-08T01:31:40.057Z,70.00
2019-02-08T01:33:44.418Z,70.10
2019-02-08T01:35:48.954Z,70.30
2019-02-08T01:37:53.505Z,70.40
2019-02-08T01:39:57.904Z,70.30
2019-02-08T01:42:02.302Z,70.70
2019-02-08T01:44:06.782Z,70.80
2019-02-08T01:46:11.178Z,70.90
2019-02-08T01:48:15.841Z,70.70
2019-02-08T01:50:22.455Z,71.10
2019-02-08T01:52:27.710Z,71.00
2019-02-08T01:54:32.308Z,71.40
2019-02-08T01:56:36.963Z,71.20
2019-02-08T01:58:41.533Z,71.40
2019-02-08T02:00:46.249Z,71.20
2019-02-08T02:02:51.630Z,71.10
2019-02-08T02:04:56.210Z,71.30
2019-02-08T02:07:00.908Z,70.90
2019-02-08T02:09:07.925Z,71.70
2019-02-08T02:11:12.430Z,71.90
2019-02-08T02:13:17.195Z,71.00
2019-02-08T02:15:21.869Z,70.90
2019-02-08T02:17:26.602Z,71.00
2019-02-08T02:19:31.349Z,71.00
2019-02-08T02:21:36.057Z,71.20
2019-02-08T02:23:40.586Z,71.20
2019-02-08T02:25:45.250Z,71.20
2019-02-08T02:27:50.066Z,71.00
2019-02-08T02:29:54.690Z,71.30
2019-02-08T02:32:05.904Z,71.30
2019-02-08T02:34:10.568Z,71.20
2019-02-08T02:36:15.149Z,71.20
2019-02-08T02:38:19.819Z,71.40
2019-02-08T02:40:24.332Z,71.40
2019-02-08T02:42:28.862Z,71.30
2019-02-08T02:44:33.632Z,71.20
2019-02-08T02:46:38.157Z,71.40
2019-02-08T02:48:42.719Z,71.40
2019-02-08T02:50:47.342Z,71.10
2019-02-08T02:52:51.977Z,71.40
2019-02-08T02:54:56.594Z,71.40
2019-02-08T02:57:01.107Z,71.40
2019-02-08T02:59:06.118Z,71.40
2019-02-08T03:01:10.555Z,71.40
2019-02-08T03:03:16.458Z,71.40
2019-02-08T03:05:20.954Z,71.10
2019-02-08T03:07:25.431Z,71.00
2019-02-08T03:09:29.912Z,71.10
2019-02-08T03:11:34.457Z,71.10
2019-02-08T03:13:40.023Z,71.20
2019-02-08T03:15:44.686Z,71.30
2019-02-08T03:17:49.339Z,71.20
2019-02-08T03:19:53.942Z,70.70
2019-02-08T03:21:58.461Z,70.80
2019-02-08T03:24:03.042Z,71.00
2019-02-08T03:26:07.610Z,70.80
2019-02-08T03:28:12.157Z,70.80
2019-02-08T03:30:19.135Z,71.70
2019-02-08T03:32:23.874Z,73.00
2019-02-08T03:34:28.422Z,73.10
2019-02-08T03:36:32.907Z,73.10
2019-02-08T03:38:37.418Z,74.20
2019-02-08T03:40:42.007Z,73.90
2019-02-08T03:42:46.517Z,74.20
2019-02-08T03:44:51.035Z,74.50
2019-02-08T03:46:55.511Z,74.30
2019-02-08T03:48:59.987Z,74.70
2019-02-08T03:51:04.517Z,74.90
2019-02-08T03:53:09.831Z,75.40
2019-02-08T03:55:16.039Z,74.90
2019-02-08T03:57:20.574Z,75.30
2019-02-08T03:59:25.170Z,74.40
2019-02-08T04:01:29.695Z,74.90
2019-02-08T04:03:34.230Z,75.20
2019-02-08T04:05:38.841Z,75.50
2019-02-08T04:07:43.471Z,75.60
2019-02-08T04:09:47.995Z,75.90
2019-02-08T04:11:52.670Z,75.90
2019-02-08T04:13:57.133Z,76.60
2019-02-08T04:16:01.648Z,75.90
2019-02-08T04:18:06.266Z,75.70
2019-02-08T04:20:11.665Z,75.60
2019-02-08T04:22:16.192Z,75.60
2019-02-08T04:24:20.755Z,75.70
2019-02-08T04:26:25.273Z,75.80
2019-02-08T04:28:29.754Z,75.70
2019-02-08T04:30:34.241Z,75.70
2019-02-08T04:32:38.810Z,75.70
2019-02-08T04:34:43.433Z,75.30
2019-02-08T04:36:47.877Z,76.00
2019-02-08T04:38:52.442Z,75.50
2019-02-08T04:40:56.855Z,75.50
2019-02-08T04:43:01.401Z,75.70
2019-02-08T04:45:06.145Z,76.00
2019-02-08T04:47:10.670Z,75.90
2019-02-08T04:49:15.245Z,76.00
2019-02-08T04:51:19.684Z,76.00
2019-02-08T04:53:24.134Z,76.00
2019-02-08T04:55:28.654Z,76.00
2019-02-08T04:57:33.174Z,76.00
2019-02-08T04:59:37.606Z,76.00
2019-02-08T05:01:42.265Z,76.00
2019-02-08T05:03:46.805Z,76.00
2019-02-08T05:05:51.344Z,76.10
2019-02-08T05:07:55.846Z,76.00
2019-02-08T05:10:00.366Z,76.00
2019-02-08T05:12:04.819Z,76.70
2019-02-08T05:14:09.453Z,76.00
2019-02-08T05:16:13.962Z,76.00
2019-02-08T05:18:18.523Z,76.00
2019-02-08T05:20:24.847Z,76.00
2019-02-08T05:22:29.363Z,76.00
2019-02-08T05:24:33.901Z,76.00
2019-02-08T05:26:38.413Z,76.00
2019-02-08T05:28:42.811Z,76.70
2019-02-08T05:30:47.335Z,76.00
2019-02-08T05:32:51.968Z,76.00
2019-02-08T05:34:56.414Z,75.60
2019-02-08T05:37:00.945Z,75.70
2019-02-08T05:39:09.559Z,75.70
2019-02-08T05:41:13.997Z,75.80
2019-02-08T05:43:18.407Z,76.10
2019-02-08T05:45:23.057Z,76.00
2019-02-08T05:47:27.570Z,75.90
2019-02-08T05:49:32.049Z,75.80
2019-02-08T05:51:36.510Z,75.80
2019-02-08T05:53:41.291Z,76.00
2019-02-08T05:55:45.753Z,76.20
2019-02-08T05:57:50.393Z,76.20
2019-02-08T05:59:54.794Z,76.90
2019-02-08T06:01:59.411Z,76.80
2019-02-08T06:04:03.892Z,77.00
2019-02-08T06:06:08.465Z,77.10
2019-02-08T06:08:12.909Z,77.70
2019-02-08T06:10:17.473Z,77.50
2019-02-08T06:12:22.013Z,77.70
2019-02-08T06:14:26.714Z,77.50
2019-02-08T06:16:31.362Z,78.20
2019-02-08T06:18:35.883Z,77.40
2019-02-08T06:20:41.422Z,77.50
2019-02-08T06:22:45.946Z,77.50
2019-02-08T06:24:50.534Z,77.20
2019-02-08T06:26:55.064Z,77.30
2019-02-08T06:28:59.609Z,76.90
2019-02-08T06:31:04.306Z,76.90
2019-02-08T06:33:08.900Z,77.20
2019-02-08T06:35:14.584Z,77.00
2019-02-08T06:37:19.090Z,77.00
2019-02-08T06:39:23.630Z,76.80
2019-02-08T06:41:28.118Z,76.80
2019-02-08T06:43:32.602Z,76.90
2019-02-08T06:45:37.176Z,76.90
2019-02-08T06:47:41.601Z,77.00
2019-02-08T06:49:46.121Z,77.10
2019-02-08T06:51:50.514Z,76.90
2019-02-08T06:53:54.901Z,76.70
2019-02-08T06:55:59.337Z,76.40
2019-02-08T06:59:08.705Z,77.00
2019-02-08T07:01:45.599Z,76.90
2019-02-08T07:03:59.321Z,76.30
2019-02-08T07:06:18.689Z,76.80
2019-02-08T07:08:34.440Z,76.70
2019-02-08T07:12:51.493Z,77.10
2019-02-08T07:16:03.654Z,77.00
2019-02-08T07:18:13.493Z,76.70
2019-02-08T07:21:28.263Z,76.50
2019-02-08T07:24:10.004Z,76.30
2019-02-08T07:26:19.448Z,76.30
2019-02-08T07:28:28.971Z,76.30
2019-02-08T07:30:43.358Z,76.00
2019-02-08T07:32:52.847Z,75.80
2019-02-08T07:37:05.024Z,75.30
2019-02-08T07:39:30.551Z,75.20
2019-02-08T07:41:42.290Z,75.10
2019-02-08T07:43:59.889Z,74.90
2019-02-08T07:46:30.202Z,74.90
2019-02-08T07:48:43.138Z,74.50
2019-02-08T07:51:08.682Z,74.50
2019-02-08T07:53:28.266Z,74.40
2019-02-08T07:55:41.777Z,74.70
2019-02-08T07:57:51.183Z,74.50
2019-02-08T08:00:05.677Z,74.40
2019-02-08T08:02:18.196Z,74.10
2019-02-08T08:05:28.362Z,74.10
2019-02-08T08:07:41.803Z,74.10
2019-02-08T08:09:51.366Z,73.70
2019-02-08T08:12:06.069Z,73.90
2019-02-08T08:16:19.951Z,73.80
2019-02-08T08:19:04.933Z,74.10
2019-02-08T08:21:44.819Z,73.60
2019-02-08T08:24:00.641Z,73.60
2019-02-08T08:26:21.491Z,73.40
2019-02-08T08:28:32.013Z,73.40
2019-02-08T08:30:41.905Z,73.60
2019-02-08T08:32:54.977Z,73.10
2019-02-08T08:35:27.485Z,73.10
2019-02-08T08:38:12.722Z,72.80
2019-02-08T08:40:32.871Z,72.00
2019-02-08T08:42:48.574Z,72.70
2019-02-08T08:45:25.490Z,72.30
2019-02-08T08:48:13.842Z,71.90
2019-02-08T08:50:49.971Z,71.90
2019-02-08T08:53:05.246Z,72.00
2019-02-08T08:55:24.379Z,71.60
2019-02-08T08:58:17.915Z,72.10
2019-02-08T09:00:38.126Z,72.10
2019-02-08T09:04:02.425Z,72.00
2019-02-08T09:19:15.855Z,72.00
2019-02-08T09:23:37.060Z,72.00
2019-02-08T09:26:03.149Z,72.10
2019-02-08T09:28:13.645Z,72.20
2019-02-08T09:31:26.654Z,72.10
2019-02-08T09:35:47.518Z,72.10
2019-02-08T09:38:08.483Z,72.00
2019-02-08T09:40:33.335Z,72.20
2019-02-08T09:43:57.078Z,72.40
2019-02-08T09:46:14.534Z,72.10
2019-02-08T09:50:39.996Z,72.30
2019-02-08T09:52:53.890Z,72.70
2019-02-08T09:55:17.051Z,73.10
2019-02-08T09:57:37.318Z,72.30
2019-02-08T10:00:11.419Z,72.40
2019-02-08T10:02:26.823Z,72.30
2019-02-08T10:06:55.205Z,71.70
2019-02-08T10:09:16.071Z,72.30
2019-02-08T10:13:32.266Z,72.00
2019-02-08T10:17:53.639Z,72.10
2019-02-08T10:20:09.534Z,72.10
2019-02-08T10:22:31.657Z,71.20
2019-02-08T10:26:59.607Z,70.90
2019-02-08T10:33:16.731Z,72.10
2019-02-08T10:37:34.061Z,70.90
2019-02-08T10:41:59.214Z,70.90
2019-02-08T10:44:16.583Z,70.10
2019-02-08T10:49:36.801Z,69.90
2019-02-08T10:52:54.243Z,69.40
2019-02-08T10:55:31.304Z,70.00
2019-02-08T10:57:47.721Z,69.50
2019-02-08T11:02:21.079Z,69.60
2019-02-08T11:05:06.631Z,69.10
2019-02-08T11:07:28.189Z,69.80
2019-02-08T11:12:47.043Z,69.60
2019-02-08T11:16:05.933Z,69.40
2019-02-08T11:19:16.762Z,70.40
2019-02-08T11:21:21.249Z,69.70
2019-02-08T11:23:25.774Z,68.80
2019-02-08T11:25:30.636Z,69.30
2019-02-08T11:27:35.333Z,69.10
2019-02-08T11:29:39.833Z,69.60
2019-02-08T11:31:44.235Z,69.60
2019-02-08T11:33:48.864Z,69.80
2019-02-08T11:35:53.551Z,69.30
2019-02-08T11:37:58.040Z,69.20
2019-02-08T11:40:02.554Z,70.20
2019-02-08T11:42:07.038Z,69.40
2019-02-08T11:44:11.601Z,69.40
2019-02-08T11:46:16.056Z,69.60
2019-02-08T11:48:20.550Z,69.40
2019-02-08T11:50:25.181Z,69.40
2019-02-08T11:52:29.805Z,69.80
2019-02-08T11:54:34.362Z,69.80
2019-02-08T11:56:38.814Z,70.00
2019-02-08T11:58:43.226Z,69.10
2019-02-08T12:00:50.821Z,70.40
2019-02-08T12:02:55.412Z,69.80
2019-02-08T12:04:59.965Z,69.70
2019-02-08T12:07:04.573Z,68.10
2019-02-08T12:09:11.728Z,68.40
2019-02-08T12:11:16.241Z,68.20
2019-02-08T12:13:20.871Z,67.40
2019-02-08T12:15:25.463Z,67.80
2019-02-08T12:17:29.895Z,67.80
2019-02-08T12:19:34.329Z,68.00
2019-02-08T12:21:38.919Z,68.30
2019-02-08T12:23:43.397Z,68.70
2019-02-08T12:25:47.994Z,67.60
2019-02-08T12:27:52.495Z,67.30
2019-02-08T12:29:57.139Z,67.50
2019-02-08T12:32:01.499Z,67.40
2019-02-08T12:34:06.645Z,68.00
2019-02-08T12:36:11.127Z,67.50
2019-02-08T12:38:15.632Z,67.50
2019-02-08T12:40:20.207Z,68.10
2019-02-08T12:42:24.864Z,67.50
2019-02-08T12:44:29.260Z,67.40
2019-02-08T12:46:33.713Z,67.10
2019-02-08T12:48:38.254Z,67.50
2019-02-08T12:50:42.675Z,66.90
2019-02-08T12:52:47.228Z,66.60
2019-02-08T12:54:51.668Z,67.40
2019-02-08T12:56:56.172Z,67.50
2019-02-08T12:59:00.740Z,66.60
2019-02-08T13:01:05.247Z,67.50
2019-02-08T13:03:09.632Z,67.30
2019-02-08T13:05:14.538Z,66.90
2019-02-08T13:07:18.996Z,66.90
2019-02-08T13:09:23.350Z,66.70
2019-02-08T13:11:27.859Z,66.60
2019-02-08T13:13:32.505Z,67.20
2019-02-08T13:15:36.894Z,67.50
2019-02-08T13:17:41.417Z,67.40
2019-02-08T13:19:45.959Z,67.40
2019-02-08T13:21:50.576Z,67.60
2019-02-08T13:23:55.018Z,67.40
2019-02-08T13:25:59.575Z,67.40
2019-02-08T13:28:04.125Z,67.50
2019-02-08T13:30:20.807Z,67.50
2019-02-08T13:32:25.535Z,67.50
2019-02-08T13:34:30.263Z,67.10
2019-02-08T13:36:34.842Z,66.80
2019-02-08T13:38:39.513Z,67.50
2019-02-08T13:40:44.190Z,67.30
2019-02-08T13:42:48.829Z,66.80
2019-02-08T13:44:53.486Z,67.00
2019-02-08T13:46:58.227Z,67.00
2019-02-08T13:49:02.873Z,66.60
2019-02-08T13:51:07.564Z,66.40
2019-02-08T13:53:12.310Z,66.10
2019-02-08T13:55:17.429Z,66.40
2019-02-08T13:57:22.181Z,66.80
2019-02-08T13:59:27.923Z,66.60
2019-02-08T14:01:32.859Z,66.80
2019-02-08T14:03:37.584Z,66.40
2019-02-08T14:05:42.140Z,66.20
2019-02-08T14:07:46.855Z,66.50
2019-02-08T14:09:51.803Z,66.30
2019-02-08T14:11:56.900Z,67.00
2019-02-08T14:14:02.585Z,66.30
2019-02-08T14:16:06.524Z,66.80
2019-02-08T14:18:11.098Z,67.50
2019-02-08T14:20:18.147Z,67.00
2019-02-08T14:22:22.679Z,66.70
2019-02-08T14:24:27.216Z,67.60
2019-02-08T14:26:31.714Z,67.50
2019-02-08T14:28:36.180Z,67.40
2019-02-08T14:30:41.454Z,67.70
2019-02-08T14:32:46.030Z,67.60
2019-02-08T14:34:50.815Z,67.80
2019-02-08T14:36:55.317Z,68.40
2019-02-08T14:38:59.834Z,69.20
2019-02-08T14:41:04.471Z,69.40
2019-02-08T14:43:09.339Z,70.00
2019-02-08T14:45:15.006Z,69.70
2019-02-08T14:47:19.480Z,69.80
2019-02-08T14:49:24.062Z,70.00
2019-02-08T14:51:28.604Z,70.10
2019-02-08T14:53:33.182Z,70.20
2019-02-08T14:55:37.713Z,70.30
2019-02-08T14:57:42.165Z,70.80
2019-02-08T14:59:46.660Z,70.90
2019-02-08T15:01:52.205Z,71.40
2019-02-08T15:03:56.675Z,71.00
2019-02-08T15:06:01.369Z,71.10
2019-02-08T15:08:05.957Z,71.10
2019-02-08T15:10:16.739Z,71.30
2019-02-08T15:12:21.223Z,71.40
2019-02-08T15:14:26.529Z,71.40
2019-02-08T15:16:31.041Z,71.30
2019-02-08T15:18:35.658Z,71.30
2019-02-08T15:20:40.161Z,71.80
2019-02-08T15:22:44.657Z,71.10
2019-02-08T15:24:49.194Z,71.60
2019-02-08T15:26:53.650Z,71.40
2019-02-08T15:28:58.191Z,71.10
2019-02-08T15:31:01.942Z,71.30
2019-02-08T15:33:05.574Z,71.30
2019-02-08T15:35:09.358Z,71.20
2019-02-08T15:37:12.906Z,71.40
2019-02-08T15:39:17.125Z,71.40
2019-02-08T15:41:20.705Z,71.20
2019-02-08T15:43:24.408Z,70.90
2019-02-08T15:45:28.027Z,70.80
2019-02-08T15:47:31.729Z,70.70
2019-02-08T15:49:35.229Z,70.60
2019-02-08T15:51:38.837Z,70.60
2019-02-08T15:53:42.455Z,70.30
2019-02-08T15:55:46.904Z,70.40
2019-02-08T15:57:50.623Z,70.00
2019-02-08T15:59:54.115Z,70.00
2019-02-08T16:01:57.709Z,70.00
2019-02-08T16:04:01.227Z,70.00
2019-02-08T16:06:04.905Z,69.30
2019-02-08T16:08:08.553Z,69.00
2019-02-08T16:10:12.177Z,69.20
2019-02-08T16:12:15.677Z,69.10
2019-02-08T16:14:19.143Z,69.30
2019-02-08T16:16:22.743Z,69.00
2019-02-08T16:18:26.280Z,69.00
2019-02-08T16:20:29.826Z,68.80
2019-02-08T16:22:33.352Z,68.80
2019-02-08T16:24:36.829Z,68.70
2019-02-08T16:26:40.280Z,68.80
2019-02-08T16:28:43.893Z,69.00
2019-02-08T16:30:47.476Z,69.10
2019-02-08T16:32:50.920Z,68.70
2019-02-08T16:34:54.462Z,68.80
2019-02-08T16:37:03.330Z,68.40
2019-02-08T16:39:01.453Z,68.60
2019-02-08T16:41:04.994Z,68.70
2019-02-08T16:43:08.498Z,68.70
2019-02-08T16:45:13.859Z,68.50
2019-02-08T16:47:17.379Z,68.20
2019-02-08T16:49:20.873Z,68.50
2019-02-08T16:51:24.453Z,68.00
2019-02-08T16:53:28.002Z,68.60
2019-02-08T16:55:31.529Z,68.60
2019-02-08T16:57:35.055Z,68.50
2019-02-08T16:59:38.616Z,68.30
2019-02-08T17:01:42.112Z,68.10
2019-02-08T17:03:45.667Z,67.90
2019-02-08T17:05:49.202Z,67.90
2019-02-08T17:07:52.649Z,68.00
2019-02-08T17:09:59.144Z,68.00
2019-02-08T17:12:05.207Z,67.90
2019-02-08T17:14:10.611Z,68.00
2019-02-08T17:16:17.272Z,67.90
2019-02-08T17:18:22.695Z,67.90
2019-02-08T17:20:29.349Z,68.40
2019-02-08T17:22:35.399Z,68.40
2019-02-08T17:24:41.424Z,68.40
2019-02-08T17:26:47.318Z,68.60
2019-02-08T17:28:53.542Z,68.70
2019-02-08T17:30:57.006Z,68.60
2019-02-08T17:33:00.514Z,68.80
2019-02-08T17:35:05.066Z,69.20
2019-02-08T17:37:08.720Z,68.80
2019-02-08T17:39:12.368Z,68.90
2019-02-08T17:41:15.927Z,68.80
2019-02-08T17:43:19.502Z,69.10
2019-02-08T17:45:23.007Z,68.90
2019-02-08T17:47:26.537Z,69.30
2019-02-08T17:49:30.048Z,68.90
2019-02-08T17:51:33.523Z,69.10
2019-02-08T17:53:37.037Z,69.10
2019-02-08T17:55:40.587Z,68.80
2019-02-08T17:57:44.328Z,69.20
2019-02-08T17:59:47.992Z,69.10
2019-02-08T18:01:51.621Z,69.20
2019-02-08T18:03:55.339Z,68.90
2019-02-08T18:05:59.025Z,69.20
2019-02-08T18:08:02.640Z,69.00
2019-02-08T18:10:06.624Z,68.80
2019-02-08T18:12:10.316Z,68.90
2019-02-08T18:14:13.808Z,68.80
2019-02-08T18:16:17.521Z,68.80
2019-02-08T18:18:22.094Z,69.30
2019-02-08T18:20:26.723Z,68.60
2019-02-08T18:22:30.189Z,68.90
2019-02-08T18:24:34.113Z,68.80
2019-02-08T18:26:37.549Z,68.80
2019-02-08T18:28:41.141Z,68.80
2019-02-08T18:30:44.856Z,68.80
2019-02-08T18:32:48.399Z,68.80
2019-02-08T18:34:52.044Z,68.80
2019-02-08T18:36:55.657Z,68.90
2019-02-08T18:38:59.241Z,68.70
2019-02-08T18:41:02.726Z,68.70
2019-02-08T18:43:06.242Z,68.60
2019-02-08T18:45:11.028Z,68.70
2019-02-08T18:47:14.622Z,68.70
2019-02-08T18:49:18.364Z,68.70
2019-02-08T18:51:21.991Z,68.70
2019-02-08T18:53:25.645Z,68.70
2019-02-08T18:55:29.271Z,68.60
2019-02-08T18:57:32.768Z,68.90
2019-02-08T18:59:36.341Z,68.90
2019-02-08T19:01:39.987Z,69.10
2019-02-08T19:03:43.640Z,68.90
2019-02-08T19:05:48.458Z,69.10
2019-02-08T19:07:51.941Z,68.90
2019-02-08T19:09:55.485Z,68.90
2019-02-08T19:11:58.993Z,68.50
2019-02-08T19:14:02.572Z,68.60
2019-02-08T19:16:06.291Z,68.90
2019-02-08T19:18:09.852Z,68.20
2019-02-08T19:20:14.509Z,68.00
2019-02-08T19:22:18.050Z,68.00
2019-02-08T19:24:21.740Z,68.40
2019-02-08T19:26:25.358Z,68.40
2019-02-08T19:28:29.102Z,68.20
2019-02-08T19:30:33.872Z,68.00
2019-02-08T19:32:38.011Z,67.90
2019-02-08T19:34:41.589Z,67.90
2019-02-08T19:36:45.065Z,67.90
2019-02-08T19:38:48.680Z,68.00
2019-02-08T19:40:52.231Z,68.00
2019-02-08T19:42:55.928Z,68.20
2019-02-08T19:44:59.549Z,68.00
2019-02-08T19:47:03.089Z,69.20
2019-02-08T19:49:06.559Z,68.60
2019-02-08T19:51:10.117Z,68.40
2019-02-08T19:53:13.678Z,68.00
2019-02-08T19:55:17.294Z,68.00
2019-02-08T19:57:20.921Z,68.30
2019-02-08T19:59:24.515Z,68.20
2019-02-08T20:01:28.189Z,68.40
2019-02-08T20:03:31.710Z,67.60
2019-02-08T20:05:35.345Z,68.30
2019-02-08T20:07:39.345Z,68.30
2019-02-08T20:09:42.886Z,68.30
2019-02-08T20:11:46.537Z,68.40
2019-02-08T20:13:49.988Z,68.40
2019-02-08T20:15:55.107Z,68.50
2019-02-08T20:17:58.656Z,68.50
2019-02-08T20:20:02.361Z,68.40
2019-02-08T20:22:05.851Z,68.80
2019-02-08T20:24:09.378Z,68.90
2019-02-08T20:26:13.167Z,68.70
2019-02-08T20:28:16.689Z,68.70
2019-02-08T20:30:20.713Z,68.70
2019-02-08T20:32:24.307Z,68.50
2019-02-08T20:34:28.803Z,68.50
2019-02-08T20:36:32.440Z,68.70
2019-02-08T20:38:35.968Z,68.80
2019-02-08T20:40:40.833Z,68.60
2019-02-08T20:42:44.531Z,69.10
2019-02-08T20:44:48.194Z,68.20
2019-02-08T20:46:51.847Z,68.40
2019-02-08T20:48:55.288Z,68.20
2019-02-08T20:50:59.746Z,67.80
2019-02-08T20:53:03.715Z,67.70
2019-02-08T20:55:07.324Z,67.80
2019-02-08T20:57:11.370Z,67.80
2019-02-08T20:59:15.835Z,67.80
2019-02-08T21:01:19.603Z,67.70
2019-02-08T21:03:23.292Z,67.70
2019-02-08T21:05:27.050Z,67.80
2019-02-08T21:07:30.775Z,67.70
2019-02-08T21:09:41.838Z,67.70
2019-02-08T21:11:50.063Z,67.10
2019-02-08T21:14:01.189Z,67.70
2019-02-08T21:16:07.798Z,67.70
2019-02-08T21:18:12.256Z,67.20
2019-02-08T21:20:15.894Z,67.70
2019-02-08T21:22:19.565Z,67.30
2019-02-08T21:24:23.100Z,67.20
2019-02-08T21:26:26.648Z,67.10
2019-02-08T21:28:30.482Z,67.00
2019-02-08T21:30:34.040Z,67.10
2019-02-08T21:32:37.578Z,67.10
2019-02-08T21:34:41.087Z,67.00
2019-02-08T21:36:44.660Z,66.90
2019-02-08T21:38:48.237Z,66.90
2019-02-08T21:40:51.720Z,66.80
2019-02-08T21:42:55.315Z,67.40
2019-02-08T21:44:58.916Z,66.70
2019-02-08T21:47:02.502Z,66.90
2019-02-08T21:49:06.874Z,66.70
2019-02-08T21:51:09.689Z,66.70
2019-02-08T21:53:13.252Z,67.00
2019-02-08T21:55:17.300Z,66.70
2019-02-08T21:57:20.905Z,66.70
2019-02-08T21:59:24.525Z,66.70
2019-02-08T22:01:28.150Z,67.00
2019-02-08T22:03:31.676Z,66.70
2019-02-08T22:05:38.489Z,66.80
2019-02-08T22:07:42.099Z,66.80
2019-02-08T22:09:45.605Z,66.70
2019-02-08T22:11:49.125Z,66.70
2019-02-08T22:13:52.657Z,66.60
2019-02-08T22:15:56.354Z,66.20
2019-02-08T22:18:00.073Z,66.30
2019-02-08T22:20:03.997Z,66.20
2019-02-08T22:22:07.607Z,66.20
2019-02-08T22:24:12.009Z,66.20
2019-02-08T22:26:15.836Z,66.20
2019-02-08T22:28:19.456Z,65.80
2019-02-08T22:30:24.649Z,66.10
2019-02-08T22:32:28.373Z,65.40
2019-02-08T22:34:31.960Z,65.50
2019-02-08T22:36:35.572Z,65.60
2019-02-08T22:38:39.138Z,65.60
2019-02-08T22:40:43.420Z,65.60
2019-02-08T22:42:46.936Z,65.20
2019-02-08T22:44:50.448Z,65.20
2019-02-08T22:46:53.949Z,65.00
2019-02-08T22:48:58.179Z,65.10
2019-02-08T22:51:01.641Z,65.40
2019-02-08T22:53:06.169Z,65.10
2019-02-08T22:55:11.097Z,65.10
2019-02-08T22:57:14.601Z,64.90
2019-02-08T22:59:22.186Z,65.10
2019-02-08T23:01:26.056Z,64.50
2019-02-08T23:03:29.819Z,64.80
2019-02-08T23:05:33.342Z,65.00
2019-02-08T23:07:36.785Z,65.10
2019-02-08T23:09:40.549Z,64.80
2019-02-08T23:11:44.176Z,64.60
2019-02-08T23:13:48.183Z,64.40
2019-02-08T23:15:51.737Z,64.90
2019-02-08T23:17:55.325Z,65.10
2019-02-08T23:19:58.848Z,64.70
2019-02-08T23:22:02.472Z,64.90
2019-02-08T23:24:06.232Z,64.90
2019-02-08T23:26:09.830Z,64.60
2019-02-08T23:28:13.488Z,64.90
2019-02-08T23:30:17.240Z,64.90
2019-02-08T23:32:20.790Z,64.80
2019-02-08T23:34:24.433Z,65.10
2019-02-08T23:36:28.028Z,65.10
2019-02-08T23:38:31.613Z,65.10
2019-02-08T23:40:35.076Z,66.30
2019-02-08T23:42:38.584Z,67.70
2019-02-08T23:44:42.156Z,69.70
2019-02-08T23:46:45.630Z,71.10
2019-02-08T23:48:49.150Z,72.10
2019-02-08T23:50:52.626Z,72.70
2019-02-08T23:52:56.122Z,73.00
2019-02-08T23:54:59.528Z,72.50
2019-02-08T23:57:03.037Z,73.00
2019-02-08T23:59:06.544Z,73.00
